sensor_id;sensor_type;location;lat;lon;timestamp;temperature;humidity
71084;DHT22;58741;52.672;13.548;2022-10-16T00:00:30;14.20;95.20
71084;DHT22;58741;52.672;13.548;2022-10-16T00:02:56;14.20;95.20
71084;DHT22;58741;52.672;13.548;2022-10-16T00:05:21;14.20;95.20
71084;DHT22;58741;52.672;13.548;2022-10-16T00:07:47;14.20;95.40
71084;DHT22;58741;52.672;13.548;2022-10-16T00:10:12;14.20;95.30
71084;DHT22;58741;52.672;13.548;2022-10-16T00:12:38;14.20;95.30
71084;DHT22;58741;52.672;13.548;2022-10-16T00:15:04;14.20;95.20
71084;DHT22;58741;52.672;13.548;2022-10-16T00:17:31;14.20;95.50
71084;DHT22;58741;52.672;13.548;2022-10-16T00:19:56;14.20;95.50
71084;DHT22;58741;52.672;13.548;2022-10-16T00:22:22;14.20;95.30
71084;DHT22;58741;52.672;13.548;2022-10-16T00:24:47;14.20;95.30
71084;DHT22;58741;52.672;13.548;2022-10-16T00:27:13;14.20;95.40
71084;DHT22;58741;52.672;13.548;2022-10-16T00:29:38;14.30;95.60
71084;DHT22;58741;52.672;13.548;2022-10-16T00:32:04;14.30;95.70
71084;DHT22;58741;52.672;13.548;2022-10-16T00:34:29;14.20;95.60
71084;DHT22;58741;52.672;13.548;2022-10-16T00:36:54;14.30;95.70
71084;DHT22;58741;52.672;13.548;2022-10-16T00:39:20;14.30;95.80
71084;DHT22;58741;52.672;13.548;2022-10-16T00:41:45;14.30;95.70
71084;DHT22;58741;52.672;13.548;2022-10-16T00:47:31;14.30;95.60
71084;DHT22;58741;52.672;13.548;2022-10-16T00:50:30;14.40;95.60
71084;DHT22;58741;52.672;13.548;2022-10-16T00:52:57;14.40;95.60
71084;DHT22;58741;52.672;13.548;2022-10-16T00:55:24;14.40;95.40
71084;DHT22;58741;52.672;13.548;2022-10-16T00:57:50;14.40;95.50
71084;DHT22;58741;52.672;13.548;2022-10-16T01:00:23;14.40;95.70
71084;DHT22;58741;52.672;13.548;2022-10-16T01:02:57;14.40;95.70
71084;DHT22;58741;52.672;13.548;2022-10-16T01:05:27;14.40;95.90
71084;DHT22;58741;52.672;13.548;2022-10-16T01:08:22;14.40;95.60
71084;DHT22;58741;52.672;13.548;2022-10-16T01:11:10;14.40;95.50
71084;DHT22;58741;52.672;13.548;2022-10-16T01:13:43;14.40;95.40
71084;DHT22;58741;52.672;13.548;2022-10-16T01:16:37;14.30;95.20
71084;DHT22;58741;52.672;13.548;2022-10-16T01:21:56;14.30;95.60
71084;DHT22;58741;52.672;13.548;2022-10-16T01:24:38;14.30;95.90
71084;DHT22;58741;52.672;13.548;2022-10-16T01:27:18;14.30;95.60
71084;DHT22;58741;52.672;13.548;2022-10-16T01:29:53;14.30;95.60
71084;DHT22;58741;52.672;13.548;2022-10-16T01:35:02;14.30;95.60
71084;DHT22;58741;52.672;13.548;2022-10-16T01:37:57;14.30;95.60
71084;DHT22;58741;52.672;13.548;2022-10-16T01:40:26;14.30;95.70
71084;DHT22;58741;52.672;13.548;2022-10-16T01:42:58;14.20;95.40
71084;DHT22;58741;52.672;13.548;2022-10-16T01:45:24;14.30;95.80
71084;DHT22;58741;52.672;13.548;2022-10-16T01:47:51;14.20;95.60
71084;DHT22;58741;52.672;13.548;2022-10-16T01:50:19;14.20;95.50
71084;DHT22;58741;52.672;13.548;2022-10-16T01:52:48;14.20;96.20
71084;DHT22;58741;52.672;13.548;2022-10-16T01:55:19;14.20;96.00
71084;DHT22;58741;52.672;13.548;2022-10-16T01:57:47;14.20;96.10
71084;DHT22;58741;52.672;13.548;2022-10-16T02:00:16;14.20;96.40
71084;DHT22;58741;52.672;13.548;2022-10-16T02:02:45;14.20;96.30
71084;DHT22;58741;52.672;13.548;2022-10-16T02:05:21;14.30;96.30
71084;DHT22;58741;52.672;13.548;2022-10-16T02:07:48;14.30;96.40
71084;DHT22;58741;52.672;13.548;2022-10-16T02:10:14;14.30;96.50
71084;DHT22;58741;52.672;13.548;2022-10-16T02:12:44;14.30;96.60
71084;DHT22;58741;52.672;13.548;2022-10-16T02:15:11;14.30;96.30
71084;DHT22;58741;52.672;13.548;2022-10-16T02:17:37;14.30;96.50
71084;DHT22;58741;52.672;13.548;2022-10-16T02:20:03;14.30;96.50
71084;DHT22;58741;52.672;13.548;2022-10-16T02:22:42;14.30;96.30
71084;DHT22;58741;52.672;13.548;2022-10-16T02:25:13;14.30;96.60
71084;DHT22;58741;52.672;13.548;2022-10-16T02:28:01;14.40;96.90
71084;DHT22;58741;52.672;13.548;2022-10-16T02:30:47;14.30;96.80
71084;DHT22;58741;52.672;13.548;2022-10-16T02:33:14;14.40;96.80
71084;DHT22;58741;52.672;13.548;2022-10-16T02:35:42;14.40;96.60
71084;DHT22;58741;52.672;13.548;2022-10-16T02:38:09;14.40;96.90
71084;DHT22;58741;52.672;13.548;2022-10-16T02:40:35;14.40;96.70
71084;DHT22;58741;52.672;13.548;2022-10-16T02:43:04;14.40;96.80
71084;DHT22;58741;52.672;13.548;2022-10-16T02:45:29;14.40;96.60
71084;DHT22;58741;52.672;13.548;2022-10-16T02:47:55;14.40;96.70
71084;DHT22;58741;52.672;13.548;2022-10-16T02:50:21;14.40;96.60
71084;DHT22;58741;52.672;13.548;2022-10-16T02:52:47;14.40;96.70
71084;DHT22;58741;52.672;13.548;2022-10-16T02:55:12;14.40;96.60
71084;DHT22;58741;52.672;13.548;2022-10-16T02:57:38;14.40;96.80
71084;DHT22;58741;52.672;13.548;2022-10-16T03:00:07;14.40;96.80
71084;DHT22;58741;52.672;13.548;2022-10-16T03:02:33;14.40;96.60
71084;DHT22;58741;52.672;13.548;2022-10-16T03:04:58;14.40;96.50
71084;DHT22;58741;52.672;13.548;2022-10-16T03:07:24;14.40;96.50
71084;DHT22;58741;52.672;13.548;2022-10-16T03:09:49;14.40;96.60
71084;DHT22;58741;52.672;13.548;2022-10-16T03:12:15;14.40;96.50
71084;DHT22;58741;52.672;13.548;2022-10-16T03:14:40;14.40;96.60
71084;DHT22;58741;52.672;13.548;2022-10-16T03:17:06;14.40;96.50
71084;DHT22;58741;52.672;13.548;2022-10-16T03:19:31;14.40;96.40
71084;DHT22;58741;52.672;13.548;2022-10-16T03:21:57;14.40;96.30
71084;DHT22;58741;52.672;13.548;2022-10-16T03:24:22;14.30;96.40
71084;DHT22;58741;52.672;13.548;2022-10-16T03:26:48;14.40;96.30
71084;DHT22;58741;52.672;13.548;2022-10-16T03:29:13;14.30;96.00
71084;DHT22;58741;52.672;13.548;2022-10-16T03:31:39;14.30;95.80
71084;DHT22;58741;52.672;13.548;2022-10-16T03:34:04;14.30;95.90
71084;DHT22;58741;52.672;13.548;2022-10-16T03:36:30;14.20;96.00
71084;DHT22;58741;52.672;13.548;2022-10-16T03:38:55;14.20;95.80
71084;DHT22;58741;52.672;13.548;2022-10-16T03:41:20;14.20;95.90
71084;DHT22;58741;52.672;13.548;2022-10-16T03:43:46;14.20;95.70
71084;DHT22;58741;52.672;13.548;2022-10-16T03:46:11;14.10;95.60
71084;DHT22;58741;52.672;13.548;2022-10-16T03:48:37;14.10;95.50
71084;DHT22;58741;52.672;13.548;2022-10-16T03:51:02;14.10;95.40
71084;DHT22;58741;52.672;13.548;2022-10-16T03:53:28;14.10;95.40
71084;DHT22;58741;52.672;13.548;2022-10-16T03:55:53;14.00;95.30
71084;DHT22;58741;52.672;13.548;2022-10-16T03:58:19;14.00;95.30
71084;DHT22;58741;52.672;13.548;2022-10-16T04:00:45;14.00;95.20
71084;DHT22;58741;52.672;13.548;2022-10-16T04:03:12;13.90;95.10
71084;DHT22;58741;52.672;13.548;2022-10-16T04:05:39;13.90;95.40
71084;DHT22;58741;52.672;13.548;2022-10-16T04:08:05;13.90;95.20
71084;DHT22;58741;52.672;13.548;2022-10-16T04:10:31;13.80;95.20
71084;DHT22;58741;52.672;13.548;2022-10-16T04:12:56;13.80;95.20
71084;DHT22;58741;52.672;13.548;2022-10-16T04:15:23;13.80;95.20
71084;DHT22;58741;52.672;13.548;2022-10-16T04:17:49;13.70;95.30
71084;DHT22;58741;52.672;13.548;2022-10-16T04:20:14;13.70;95.30
71084;DHT22;58741;52.672;13.548;2022-10-16T04:22:40;13.70;95.30
71084;DHT22;58741;52.672;13.548;2022-10-16T04:25:06;13.70;95.30
71084;DHT22;58741;52.672;13.548;2022-10-16T04:27:31;13.60;95.20
71084;DHT22;58741;52.672;13.548;2022-10-16T04:29:58;13.60;95.40
71084;DHT22;58741;52.672;13.548;2022-10-16T04:32:24;13.60;95.20
71084;DHT22;58741;52.672;13.548;2022-10-16T04:34:49;13.60;95.20
71084;DHT22;58741;52.672;13.548;2022-10-16T04:37:15;13.60;95.20
71084;DHT22;58741;52.672;13.548;2022-10-16T04:39:40;13.50;95.30
71084;DHT22;58741;52.672;13.548;2022-10-16T04:42:06;13.60;95.60
71084;DHT22;58741;52.672;13.548;2022-10-16T04:44:31;13.50;95.40
71084;DHT22;58741;52.672;13.548;2022-10-16T04:46:57;13.50;95.70
71084;DHT22;58741;52.672;13.548;2022-10-16T04:49:22;13.50;96.10
71084;DHT22;58741;52.672;13.548;2022-10-16T04:51:48;13.50;96.10
71084;DHT22;58741;52.672;13.548;2022-10-16T04:54:13;13.50;95.80
71084;DHT22;58741;52.672;13.548;2022-10-16T04:56:39;13.50;95.70
71084;DHT22;58741;52.672;13.548;2022-10-16T04:59:16;13.40;95.60
71084;DHT22;58741;52.672;13.548;2022-10-16T05:01:42;13.40;95.50
71084;DHT22;58741;52.672;13.548;2022-10-16T05:04:08;13.40;95.60
71084;DHT22;58741;52.672;13.548;2022-10-16T05:06:34;13.40;95.70
71084;DHT22;58741;52.672;13.548;2022-10-16T05:08:59;13.40;96.10
71084;DHT22;58741;52.672;13.548;2022-10-16T05:11:25;13.40;95.90
71084;DHT22;58741;52.672;13.548;2022-10-16T05:13:50;13.40;95.90
71084;DHT22;58741;52.672;13.548;2022-10-16T05:16:16;13.40;95.90
71084;DHT22;58741;52.672;13.548;2022-10-16T05:18:41;13.30;95.60
71084;DHT22;58741;52.672;13.548;2022-10-16T05:21:07;13.30;95.50
71084;DHT22;58741;52.672;13.548;2022-10-16T05:23:32;13.30;95.50
71084;DHT22;58741;52.672;13.548;2022-10-16T05:25:59;13.30;95.40
71084;DHT22;58741;52.672;13.548;2022-10-16T05:28:26;13.20;95.30
71084;DHT22;58741;52.672;13.548;2022-10-16T05:30:51;13.20;95.30
71084;DHT22;58741;52.672;13.548;2022-10-16T05:33:19;13.20;95.20
71084;DHT22;58741;52.672;13.548;2022-10-16T05:35:44;13.20;95.20
71084;DHT22;58741;52.672;13.548;2022-10-16T05:38:10;13.10;95.20
71084;DHT22;58741;52.672;13.548;2022-10-16T05:40:35;13.10;95.40
71084;DHT22;58741;52.672;13.548;2022-10-16T05:43:01;13.10;95.50
71084;DHT22;58741;52.672;13.548;2022-10-16T05:45:26;13.10;95.80
71084;DHT22;58741;52.672;13.548;2022-10-16T05:47:52;13.10;96.10
71084;DHT22;58741;52.672;13.548;2022-10-16T05:50:17;13.10;96.30
71084;DHT22;58741;52.672;13.548;2022-10-16T05:52:43;13.10;96.60
71084;DHT22;58741;52.672;13.548;2022-10-16T05:55:08;13.20;96.70
71084;DHT22;58741;52.672;13.548;2022-10-16T05:57:34;13.20;96.70
71084;DHT22;58741;52.672;13.548;2022-10-16T05:59:59;13.20;96.90
71084;DHT22;58741;52.672;13.548;2022-10-16T06:02:25;13.20;96.90
71084;DHT22;58741;52.672;13.548;2022-10-16T06:04:53;13.20;97.00
71084;DHT22;58741;52.672;13.548;2022-10-16T06:07:19;13.30;97.10
71084;DHT22;58741;52.672;13.548;2022-10-16T06:09:48;13.30;97.40
71084;DHT22;58741;52.672;13.548;2022-10-16T06:12:14;13.30;97.70
71084;DHT22;58741;52.672;13.548;2022-10-16T06:14:39;13.40;97.90
71084;DHT22;58741;52.672;13.548;2022-10-16T06:17:05;13.40;97.80
71084;DHT22;58741;52.672;13.548;2022-10-16T06:19:30;13.40;97.90
71084;DHT22;58741;52.672;13.548;2022-10-16T06:21:56;13.50;98.00
71084;DHT22;58741;52.672;13.548;2022-10-16T06:24:23;13.50;98.00
71084;DHT22;58741;52.672;13.548;2022-10-16T06:26:48;13.50;98.40
71084;DHT22;58741;52.672;13.548;2022-10-16T06:29:14;13.60;98.30
71084;DHT22;58741;52.672;13.548;2022-10-16T06:31:39;13.60;98.40
71084;DHT22;58741;52.672;13.548;2022-10-16T06:34:05;13.70;98.20
71084;DHT22;58741;52.672;13.548;2022-10-16T06:36:34;13.70;98.20
71084;DHT22;58741;52.672;13.548;2022-10-16T06:39:00;13.80;98.40
71084;DHT22;58741;52.672;13.548;2022-10-16T06:41:25;13.80;98.30
71084;DHT22;58741;52.672;13.548;2022-10-16T06:43:51;13.90;98.30
71084;DHT22;58741;52.672;13.548;2022-10-16T06:46:20;13.90;98.20
71084;DHT22;58741;52.672;13.548;2022-10-16T06:48:46;14.00;98.20
71084;DHT22;58741;52.672;13.548;2022-10-16T06:51:15;14.00;98.30
71084;DHT22;58741;52.672;13.548;2022-10-16T06:53:46;14.10;98.40
71084;DHT22;58741;52.672;13.548;2022-10-16T06:56:16;14.10;98.40
71084;DHT22;58741;52.672;13.548;2022-10-16T06:58:43;14.20;98.40
71084;DHT22;58741;52.672;13.548;2022-10-16T07:01:09;14.20;98.40
71084;DHT22;58741;52.672;13.548;2022-10-16T07:03:40;14.30;98.30
71084;DHT22;58741;52.672;13.548;2022-10-16T07:06:07;14.30;98.30
71084;DHT22;58741;52.672;13.548;2022-10-16T07:08:33;14.40;98.20
71084;DHT22;58741;52.672;13.548;2022-10-16T07:11:04;14.50;97.90
71084;DHT22;58741;52.672;13.548;2022-10-16T07:13:33;14.50;97.80
71084;DHT22;58741;52.672;13.548;2022-10-16T07:16:07;14.60;97.80
71084;DHT22;58741;52.672;13.548;2022-10-16T07:18:33;14.60;97.70
71084;DHT22;58741;52.672;13.548;2022-10-16T07:21:06;14.70;97.80
71084;DHT22;58741;52.672;13.548;2022-10-16T07:23:32;14.70;97.50
71084;DHT22;58741;52.672;13.548;2022-10-16T07:25:57;14.70;97.40
71084;DHT22;58741;52.672;13.548;2022-10-16T07:28:23;14.70;97.30
71084;DHT22;58741;52.672;13.548;2022-10-16T07:30:49;14.80;97.10
71084;DHT22;58741;52.672;13.548;2022-10-16T07:33:14;14.80;97.00
71084;DHT22;58741;52.672;13.548;2022-10-16T07:35:53;14.80;97.20
71084;DHT22;58741;52.672;13.548;2022-10-16T07:38:19;14.80;97.20
71084;DHT22;58741;52.672;13.548;2022-10-16T07:40:45;14.90;97.20
71084;DHT22;58741;52.672;13.548;2022-10-16T07:43:11;14.90;97.00
71084;DHT22;58741;52.672;13.548;2022-10-16T07:45:37;14.90;96.90
71084;DHT22;58741;52.672;13.548;2022-10-16T07:48:11;14.90;96.90
71084;DHT22;58741;52.672;13.548;2022-10-16T07:50:36;15.00;96.90
71084;DHT22;58741;52.672;13.548;2022-10-16T07:53:02;15.00;96.70
71084;DHT22;58741;52.672;13.548;2022-10-16T07:55:27;15.10;96.70
71084;DHT22;58741;52.672;13.548;2022-10-16T07:57:52;15.10;96.70
71084;DHT22;58741;52.672;13.548;2022-10-16T08:00:18;15.10;96.60
71084;DHT22;58741;52.672;13.548;2022-10-16T08:02:43;15.20;96.60
71084;DHT22;58741;52.672;13.548;2022-10-16T08:05:09;15.20;96.60
71084;DHT22;58741;52.672;13.548;2022-10-16T08:07:34;15.30;96.60
71084;DHT22;58741;52.672;13.548;2022-10-16T08:10:00;15.30;96.50
71084;DHT22;58741;52.672;13.548;2022-10-16T08:12:26;15.30;96.50
71084;DHT22;58741;52.672;13.548;2022-10-16T08:14:51;15.40;96.50
71084;DHT22;58741;52.672;13.548;2022-10-16T08:17:17;15.40;96.50
71084;DHT22;58741;52.672;13.548;2022-10-16T08:19:45;15.40;96.50
71084;DHT22;58741;52.672;13.548;2022-10-16T08:22:11;15.40;96.40
71084;DHT22;58741;52.672;13.548;2022-10-16T08:24:37;15.40;96.30
71084;DHT22;58741;52.672;13.548;2022-10-16T08:27:02;15.50;96.20
71084;DHT22;58741;52.672;13.548;2022-10-16T08:29:28;15.50;96.30
71084;DHT22;58741;52.672;13.548;2022-10-16T08:31:54;15.50;96.20
71084;DHT22;58741;52.672;13.548;2022-10-16T08:34:19;15.60;96.20
71084;DHT22;58741;52.672;13.548;2022-10-16T08:36:45;15.60;96.30
71084;DHT22;58741;52.672;13.548;2022-10-16T08:39:10;15.60;96.40
71084;DHT22;58741;52.672;13.548;2022-10-16T08:42:06;15.70;96.40
71084;DHT22;58741;52.672;13.548;2022-10-16T08:47:25;15.80;96.50
71084;DHT22;58741;52.672;13.548;2022-10-16T08:50:00;15.90;96.40
71084;DHT22;58741;52.672;13.548;2022-10-16T08:52:34;16.00;96.20
71084;DHT22;58741;52.672;13.548;2022-10-16T08:55:01;16.00;96.10
71084;DHT22;58741;52.672;13.548;2022-10-16T08:57:27;16.10;95.80
71084;DHT22;58741;52.672;13.548;2022-10-16T08:59:53;16.20;95.60
71084;DHT22;58741;52.672;13.548;2022-10-16T09:02:37;16.20;95.60
71084;DHT22;58741;52.672;13.548;2022-10-16T09:05:37;16.30;95.60
71084;DHT22;58741;52.672;13.548;2022-10-16T09:13:50;16.60;95.90
71084;DHT22;58741;52.672;13.548;2022-10-16T09:16:19;16.80;95.70
71084;DHT22;58741;52.672;13.548;2022-10-16T09:19:13;17.00;95.50
71084;DHT22;58741;52.672;13.548;2022-10-16T09:21:42;17.10;95.30
71084;DHT22;58741;52.672;13.548;2022-10-16T09:24:17;17.30;94.90
71084;DHT22;58741;52.672;13.548;2022-10-16T09:26:44;17.40;94.50
71084;DHT22;58741;52.672;13.548;2022-10-16T09:29:18;17.50;93.80
71084;DHT22;58741;52.672;13.548;2022-10-16T09:31:48;17.50;92.90
71084;DHT22;58741;52.672;13.548;2022-10-16T09:34:34;17.60;93.20
71084;DHT22;58741;52.672;13.548;2022-10-16T09:37:04;17.60;92.90
71084;DHT22;58741;52.672;13.548;2022-10-16T09:39:31;17.70;93.00
71084;DHT22;58741;52.672;13.548;2022-10-16T09:42:11;17.70;92.20
71084;DHT22;58741;52.672;13.548;2022-10-16T09:44:39;17.80;92.20
71084;DHT22;58741;52.672;13.548;2022-10-16T09:47:15;17.80;91.60
71084;DHT22;58741;52.672;13.548;2022-10-16T09:50:00;17.90;91.40
71084;DHT22;58741;52.672;13.548;2022-10-16T09:52:28;17.90;92.00
71084;DHT22;58741;52.672;13.548;2022-10-16T09:54:56;18.00;91.40
71084;DHT22;58741;52.672;13.548;2022-10-16T09:57:22;18.00;91.50
71084;DHT22;58741;52.672;13.548;2022-10-16T09:59:50;18.10;91.00
71084;DHT22;58741;52.672;13.548;2022-10-16T10:02:39;18.10;90.70
71084;DHT22;58741;52.672;13.548;2022-10-16T10:05:05;18.20;90.40
71084;DHT22;58741;52.672;13.548;2022-10-16T10:07:43;18.20;90.80
71084;DHT22;58741;52.672;13.548;2022-10-16T10:10:20;18.40;90.10
71084;DHT22;58741;52.672;13.548;2022-10-16T10:12:46;18.40;90.20
71084;DHT22;58741;52.672;13.548;2022-10-16T10:15:13;18.50;88.80
71084;DHT22;58741;52.672;13.548;2022-10-16T10:18:00;18.50;89.90
71084;DHT22;58741;52.672;13.548;2022-10-16T10:22:55;18.60;89.40
71084;DHT22;58741;52.672;13.548;2022-10-16T10:28:24;18.60;87.30
71084;DHT22;58741;52.672;13.548;2022-10-16T10:36:27;18.70;89.40
71084;DHT22;58741;52.672;13.548;2022-10-16T10:39:25;18.80;86.70
71084;DHT22;58741;52.672;13.548;2022-10-16T10:47:40;19.00;83.80
71084;DHT22;58741;52.672;13.548;2022-10-16T10:50:35;19.10;84.30
71084;DHT22;58741;52.672;13.548;2022-10-16T10:55:59;19.20;85.40
71084;DHT22;58741;52.672;13.548;2022-10-16T10:58:39;19.30;83.40
71084;DHT22;58741;52.672;13.548;2022-10-16T11:01:15;19.40;83.20
71084;DHT22;58741;52.672;13.548;2022-10-16T11:04:05;19.40;81.70
71084;DHT22;58741;52.672;13.548;2022-10-16T11:07:00;19.40;80.00
71084;DHT22;58741;52.672;13.548;2022-10-16T11:09:34;19.40;82.70
71084;DHT22;58741;52.672;13.548;2022-10-16T11:12:25;19.40;80.90
71084;DHT22;58741;52.672;13.548;2022-10-16T11:14:56;19.50;82.90
71084;DHT22;58741;52.672;13.548;2022-10-16T11:17:31;19.50;84.90
71084;DHT22;58741;52.672;13.548;2022-10-16T11:20:12;19.60;82.80
71084;DHT22;58741;52.672;13.548;2022-10-16T11:22:42;19.60;81.30
71084;DHT22;58741;52.672;13.548;2022-10-16T11:25:25;19.60;80.00
71084;DHT22;58741;52.672;13.548;2022-10-16T11:28:02;19.60;78.50
71084;DHT22;58741;52.672;13.548;2022-10-16T11:30:31;19.60;81.10
71084;DHT22;58741;52.672;13.548;2022-10-16T11:33:10;19.60;80.50
71084;DHT22;58741;52.672;13.548;2022-10-16T11:35:47;19.50;77.80
71084;DHT22;58741;52.672;13.548;2022-10-16T11:38:27;19.50;80.60
71084;DHT22;58741;52.672;13.548;2022-10-16T11:40:58;19.70;81.70
71084;DHT22;58741;52.672;13.548;2022-10-16T11:43:32;19.90;79.50
71084;DHT22;58741;52.672;13.548;2022-10-16T11:46:05;20.00;79.40
71084;DHT22;58741;52.672;13.548;2022-10-16T11:52:13;20.40;78.00
71084;DHT22;58741;52.672;13.548;2022-10-16T11:57:38;20.90;78.60
71084;DHT22;58741;52.672;13.548;2022-10-16T12:00:31;21.10;78.20
71084;DHT22;58741;52.672;13.548;2022-10-16T12:05:35;21.50;74.70
71084;DHT22;58741;52.672;13.548;2022-10-16T12:08:11;21.60;66.80
71084;DHT22;58741;52.672;13.548;2022-10-16T12:10:40;21.70;73.40
71084;DHT22;58741;52.672;13.548;2022-10-16T12:13:33;21.80;73.70
71084;DHT22;58741;52.672;13.548;2022-10-16T12:18:38;22.00;66.90
71084;DHT22;58741;52.672;13.548;2022-10-16T12:21:05;22.00;67.50
71084;DHT22;58741;52.672;13.548;2022-10-16T12:23:53;21.90;68.00
71084;DHT22;58741;52.672;13.548;2022-10-16T12:26:27;22.10;70.60
71084;DHT22;58741;52.672;13.548;2022-10-16T12:28:54;22.30;68.70
71084;DHT22;58741;52.672;13.548;2022-10-16T12:31:20;22.50;69.40
71084;DHT22;58741;52.672;13.548;2022-10-16T12:33:58;22.60;67.10
71084;DHT22;58741;52.672;13.548;2022-10-16T12:36:32;22.80;67.90
71084;DHT22;58741;52.672;13.548;2022-10-16T12:39:00;22.90;60.80
71084;DHT22;58741;52.672;13.548;2022-10-16T12:41:28;22.90;61.70
71084;DHT22;58741;52.672;13.548;2022-10-16T12:43:54;22.90;65.30
71084;DHT22;58741;52.672;13.548;2022-10-16T12:46:24;22.90;61.70
71084;DHT22;58741;52.672;13.548;2022-10-16T12:51:39;23.10;62.20
71084;DHT22;58741;52.672;13.548;2022-10-16T12:54:15;23.30;65.00
71084;DHT22;58741;52.672;13.548;2022-10-16T12:57:09;23.50;63.40
71084;DHT22;58741;52.672;13.548;2022-10-16T12:59:53;23.60;64.40
71084;DHT22;58741;52.672;13.548;2022-10-16T13:02:51;23.70;62.50
71084;DHT22;58741;52.672;13.548;2022-10-16T13:05:46;23.90;63.70
71084;DHT22;58741;52.672;13.548;2022-10-16T13:11:23;24.10;60.20
71084;DHT22;58741;52.672;13.548;2022-10-16T13:16:57;23.70;58.00
71084;DHT22;58741;52.672;13.548;2022-10-16T13:19:47;23.50;59.40
71084;DHT22;58741;52.672;13.548;2022-10-16T13:22:33;23.20;60.30
71084;DHT22;58741;52.672;13.548;2022-10-16T13:25:22;23.10;59.30
71084;DHT22;58741;52.672;13.548;2022-10-16T13:27:58;22.90;60.20
71084;DHT22;58741;52.672;13.548;2022-10-16T13:30:26;22.80;61.20
71084;DHT22;58741;52.672;13.548;2022-10-16T13:33:06;22.60;59.70
71084;DHT22;58741;52.672;13.548;2022-10-16T13:35:34;22.40;60.70
71084;DHT22;58741;52.672;13.548;2022-10-16T13:38:21;22.30;62.20
71084;DHT22;58741;52.672;13.548;2022-10-16T13:43:17;21.90;59.20
71084;DHT22;58741;52.672;13.548;2022-10-16T13:45:52;21.80;58.80
71084;DHT22;58741;52.672;13.548;2022-10-16T13:48:18;21.60;62.90
71084;DHT22;58741;52.672;13.548;2022-10-16T13:50:43;21.40;60.20
71084;DHT22;58741;52.672;13.548;2022-10-16T13:53:14;21.20;59.60
71084;DHT22;58741;52.672;13.548;2022-10-16T13:55:40;21.00;61.60
71084;DHT22;58741;52.672;13.548;2022-10-16T13:58:08;20.80;60.40
71084;DHT22;58741;52.672;13.548;2022-10-16T14:00:36;20.80;63.60
71084;DHT22;58741;52.672;13.548;2022-10-16T14:03:11;20.70;64.90
71084;DHT22;58741;52.672;13.548;2022-10-16T14:05:53;20.70;64.10
71084;DHT22;58741;52.672;13.548;2022-10-16T14:08:19;20.60;63.60
71084;DHT22;58741;52.672;13.548;2022-10-16T14:10:49;20.60;64.20
71084;DHT22;58741;52.672;13.548;2022-10-16T14:13:19;20.50;64.80
71084;DHT22;58741;52.672;13.548;2022-10-16T14:15:47;20.50;63.80
71084;DHT22;58741;52.672;13.548;2022-10-16T14:18:20;20.40;63.80
71084;DHT22;58741;52.672;13.548;2022-10-16T14:20:48;20.40;63.50
71084;DHT22;58741;52.672;13.548;2022-10-16T14:28:38;20.20;64.40
71084;DHT22;58741;52.672;13.548;2022-10-16T14:33:46;20.10;65.10
71084;DHT22;58741;52.672;13.548;2022-10-16T14:36:13;20.10;64.90
71084;DHT22;58741;52.672;13.548;2022-10-16T14:38:42;20.00;64.70
71084;DHT22;58741;52.672;13.548;2022-10-16T14:41:08;19.90;61.80
71084;DHT22;58741;52.672;13.548;2022-10-16T14:43:39;19.80;63.20
71084;DHT22;58741;52.672;13.548;2022-10-16T14:46:29;19.80;62.20
71084;DHT22;58741;52.672;13.548;2022-10-16T14:49:04;19.70;63.40
71084;DHT22;58741;52.672;13.548;2022-10-16T14:51:30;19.60;64.30
71084;DHT22;58741;52.672;13.548;2022-10-16T14:53:56;19.60;65.50
71084;DHT22;58741;52.672;13.548;2022-10-16T14:56:23;19.50;63.80
71084;DHT22;58741;52.672;13.548;2022-10-16T14:58:50;19.50;64.80
71084;DHT22;58741;52.672;13.548;2022-10-16T15:01:16;19.40;64.40
71084;DHT22;58741;52.672;13.548;2022-10-16T15:03:42;19.40;65.70
71084;DHT22;58741;52.672;13.548;2022-10-16T15:06:12;19.30;66.00
71084;DHT22;58741;52.672;13.548;2022-10-16T15:08:38;19.30;66.10
71084;DHT22;58741;52.672;13.548;2022-10-16T15:11:04;19.20;64.70
71084;DHT22;58741;52.672;13.548;2022-10-16T15:13:30;19.20;66.10
71084;DHT22;58741;52.672;13.548;2022-10-16T15:15:56;19.10;66.70
71084;DHT22;58741;52.672;13.548;2022-10-16T15:18:21;19.10;66.80
71084;DHT22;58741;52.672;13.548;2022-10-16T15:20:51;19.00;67.90
71084;DHT22;58741;52.672;13.548;2022-10-16T15:23:18;19.00;67.00
71084;DHT22;58741;52.672;13.548;2022-10-16T15:25:50;18.90;67.80
71084;DHT22;58741;52.672;13.548;2022-10-16T15:28:17;18.90;68.00
71084;DHT22;58741;52.672;13.548;2022-10-16T15:30:43;18.80;68.70
71084;DHT22;58741;52.672;13.548;2022-10-16T15:33:22;18.70;68.90
71084;DHT22;58741;52.672;13.548;2022-10-16T15:35:52;18.60;69.20
71084;DHT22;58741;52.672;13.548;2022-10-16T15:38:19;18.60;69.80
71084;DHT22;58741;52.672;13.548;2022-10-16T15:40:47;18.50;70.20
71084;DHT22;58741;52.672;13.548;2022-10-16T15:43:13;18.40;70.60
71084;DHT22;58741;52.672;13.548;2022-10-16T15:45:39;18.30;68.60
71084;DHT22;58741;52.672;13.548;2022-10-16T15:48:05;18.20;69.70
71084;DHT22;58741;52.672;13.548;2022-10-16T15:50:31;18.20;70.20
71084;DHT22;58741;52.672;13.548;2022-10-16T15:52:57;18.10;69.50
71084;DHT22;58741;52.672;13.548;2022-10-16T15:55:23;18.00;69.80
71084;DHT22;58741;52.672;13.548;2022-10-16T15:57:49;18.00;70.40
71084;DHT22;58741;52.672;13.548;2022-10-16T16:00:17;17.90;70.70
71084;DHT22;58741;52.672;13.548;2022-10-16T16:02:44;17.90;70.90
71084;DHT22;58741;52.672;13.548;2022-10-16T16:05:14;17.80;70.40
71084;DHT22;58741;52.672;13.548;2022-10-16T16:07:40;17.70;71.20
71084;DHT22;58741;52.672;13.548;2022-10-16T16:10:09;17.60;71.40
71084;DHT22;58741;52.672;13.548;2022-10-16T16:12:35;17.50;71.60
71084;DHT22;58741;52.672;13.548;2022-10-16T16:15:02;17.40;71.80
71084;DHT22;58741;52.672;13.548;2022-10-16T16:17:27;17.30;72.10
71084;DHT22;58741;52.672;13.548;2022-10-16T16:19:53;17.20;72.30
71084;DHT22;58741;52.672;13.548;2022-10-16T16:22:18;17.10;72.30
71084;DHT22;58741;52.672;13.548;2022-10-16T16:24:44;17.10;72.70
71084;DHT22;58741;52.672;13.548;2022-10-16T16:27:09;17.00;72.90
71084;DHT22;58741;52.672;13.548;2022-10-16T16:29:35;16.90;73.00
71084;DHT22;58741;52.672;13.548;2022-10-16T16:32:01;16.80;73.20
71084;DHT22;58741;52.672;13.548;2022-10-16T16:34:27;16.70;73.60
71084;DHT22;58741;52.672;13.548;2022-10-16T16:36:54;16.60;74.20
71084;DHT22;58741;52.672;13.548;2022-10-16T16:39:20;16.50;73.70